x

Eel River - 17nm Wsw Of Eureka, Ca (46022) Wave Buoy

12:50am - Sat 23rd Jul 2016 All times are PDT. -7 hours from GMT.

  • Sig Wave height 4.9ft
  • Swell Direction
  • Peak Period 7s
  • Average Period 6s
  • Wind
    13mph, 16mph gusts
  • Sea Temp 51°f
  • Air Temp 56°f
  • Sea Pressure 1022.1mb
  • Eel River - 17nm Wsw Of Eureka, Ca
  • Eel River - 17nm Wsw Of Eureka, Ca

More Historic Weather Station data

Upgrade to MSW Pro to gain access to the past 30 days of data for over 8000 Wavebouys and Weather Stations around the globe.

Join Pro

Comparision Forecast

View Surf forecast
   
Sat 07/23 12:50am 5ft 7s 6s 13 16 mph 1022.1mb 51f 56f
Fri 07/22 11:50pm 4.5ft 7s 6s 11
mph
1022.6mb 52f 56f
10:50pm 4.5ft 6s 6s 9
mph
1023.3mb 52f 56f
9:50pm 4.5ft 6s 6s 9
mph
1023.3mb 53f 56f
8:50pm 4.5ft 6s 5s 11 13 mph 1023.3mb 55f 57f
7:50pm 4ft 8s 5s 9
mph
1023.5mb 55f 58f
6:50pm 4ft 8s 5s 9 11 mph 1023.5mb 53f 58f
5:50pm 3.5ft 8s 5s 7 9 mph 1023.9mb 53f 57f
4:50pm 3.5ft 9s 5s 11 13 mph 1024mb 53f 57f
3:50pm 3.5ft 5s 5s 9 11 mph 1024.2mb 54f 57f
2:50pm 3.5ft 8s 5s 7 9 mph 1024.5mb 53f 57f
1:50pm 3.5ft 5s 5s 9 11 mph 1024.4mb 54f 56f
12:50pm 3.5ft 14s 5s 7 9 mph 1024.4mb 54f 56f
10:50am 3.5ft 8s 6s 11 13 mph 1023.8mb 53f 56f
9:50am 3ft 15s 6s 11
mph
1023.6mb 51f 56f
8:50am 3ft 16s 6s 11 13 mph 1023.6mb 50f 55f
7:50am 3.5ft 8s 6s 9
mph
1023.3mb 50f 54f
6:50am 3.5ft 8s 5s 13 16 mph 1022.9mb 51f 54f
5:50am 2.5ft 9s 5s 11 13 mph 1022.7mb 51f 55f
4:50am 3.5ft 8s 7s 13 16 mph 1022.5mb 51f 56f
3:50am 3ft 8s 7s 11 13 mph 1022.3mb 53f 56f
2:50am 3ft 15s 7s 9 11 mph 1022.3mb 54f 56f
1:50am 3ft 9s 7s 9 11 mph 1022.5mb 55f 56f
12:50am 3ft 15s 7s 9
mph
1022.7mb 55f 57f
Thu 07/21 11:50pm 3ft 8s 7s 9
mph
1022.8mb 56f 57f
10:50pm 3.5ft 8s 7s 7 9 mph 1022.8mb 56f 57f
9:50pm 3.5ft 8s 7s 9
mph
1022.6mb 56f 58f
8:50pm 3.5ft 8s 7s 7 9 mph 1022.3mb 57f 58f
7:50pm 3.5ft 8s 7s 7
mph
1022.3mb 58f 59f
6:50pm 3.5ft 8s 7s 7 9 mph 1022mb 58f 60f
5:50pm 3.5ft 8s 7s 9
mph
1021.9mb 59f 60f
4:50pm 3ft 8s 7s 7 9 mph 1022mb 59f 60f
3:50pm 3.5ft 8s 7s 7
mph
1021.7mb 59f 60f
2:50pm 3ft 15s 7s 7
mph
1021.4mb 59f 60f
1:50pm 3ft 8s 7s 4 7 mph 1021.2mb 60f 60f
12:50pm 3.5ft 8s 7s 4
mph
1021mb 59f 60f
11:50am 3.5ft 8s 7s  -  2 mph 1020.8mb 59f 60f
10:50am 3ft 8s 7s 4 7 mph 1020.4mb 57f 58f
9:50am 3.5ft 8s 7s 2 4 mph 1020.2mb 56f 58f
8:50am 3.5ft 8s 7s 2
mph
1019.9mb 56f 57f
7:50am 3.5ft 8s 7s 4 7 mph 1019.3mb 57f 56f
6:50am 3ft 8s 7s 4
mph
1019mb 57f 57f
5:50am 3ft 8s 7s 2
mph
1018.7mb 57f 57f
4:50am 3.5ft 8s 7s  -  2 mph 1018.3mb 55f 56f
3:50am 3.5ft 8s 7s 4
mph
1018.3mb 55f 57f
2:50am 3ft 8s 7s 7
mph
1018.1mb 56f 57f
1:50am 3ft 8s 7s 7
mph
1018.4mb 56f 57f
12:50am 3ft 8s 7s 9 11 mph 1018.3mb 56f 57f
Wed 07/20 11:50pm 3ft 8s 7s 9 11 mph 1018.4mb 56f 57f
10:50pm 3.5ft 8s 7s 7 9 mph 1018.6mb 56f 57f
9:50pm 3.5ft 8s 7s 9 13 mph 1018.4mb 56f 57f
8:50pm 3.5ft 8s 7s 13 16 mph 1018.3mb 56f 58f
7:50pm 3ft 8s 7s 7
mph
1018.8mb 57f 58f
6:50pm 3.5ft 8s 7s 7 9 mph 1018.9mb 58f 59f
5:50pm 3.5ft 8s 7s 9 11 mph 1019.2mb 59f 59f
4:50pm 3.5ft 8s 7s 4 7 mph 1019.5mb 58f 58f
3:50pm 3.5ft 8s 8s 4 7 mph 1019.5mb 58f 58f
2:50pm 3.5ft 8s 7s 4
mph
1019.6mb 57f 57f
1:50pm 3.5ft 8s 7s 4
mph
1020mb 56f 57f
12:50pm 3.5ft 15s 8s 4 7 mph 1020mb 56f 56f
11:50am 3.5ft 8s 7s 4 7 mph 1020.1mb 55f 55f
10:50am 3.5ft 9s 7s 7
mph
1020.4mb 55f 55f
9:50am 3.5ft 8s 7s 9
mph
1020.3mb 55f 55f
8:50am 3.5ft 8s 7s 9 13 mph 1020.2mb 55f 54f
7:50am 3.5ft 8s 7s 11 13 mph 1020.2mb 55f 54f
6:50am 3.5ft 8s 7s 7 9 mph 1020.1mb 55f 54f
5:50am 3.5ft 8s 7s 9 11 mph 1019.8mb 56f 54f
4:50am 3.5ft 9s 7s 9 11 mph 1019.5mb 55f 54f
3:50am 3.5ft 8s 7s 9 11 mph 1019.4mb 56f 55f
2:50am 3.5ft 8s 7s 9 11 mph 1019.2mb 56f 56f
1:50am 3.5ft 8s 7s 9 11 mph 1019.3mb 55f 56f
12:50am 4ft 9s 7s 7
mph
1020.2mb 55f 56f
Tue 07/19 11:50pm 3.5ft 8s 7s 7 9 mph 1020.3mb 56f 57f
10:50pm 3.5ft 8s 7s 9 11 mph 1020.1mb 56f 57f
9:50pm 3.5ft 9s 7s 9 11 mph 1019.8mb 57f 58f
8:50pm 3.5ft 9s 7s 7 9 mph 1019.7mb 57f 58f
7:50pm 3.5ft 8s 7s 9
mph
1019.8mb 57f 59f
6:50pm 3.5ft 8s 7s 9 11 mph 1019.8mb 56f 59f
5:50pm 3.5ft 9s 7s 9
mph
1020.1mb 57f 59f
4:50pm 3.5ft 9s 7s 9 11 mph 1020.4mb 58f 59f
3:50pm 4ft 9s 7s 9
mph
1020.6mb 58f 59f
2:50pm 3.5ft 9s 7s 7 9 mph 1020.8mb 59f 59f
1:50pm 4ft 9s 7s 4 7 mph 1020.9mb 59f 58f
12:50pm 4ft 9s 7s 4 7 mph 1020.9mb 59f 58f
11:50am 4ft 9s 7s 2 4 mph 1021mb 59f 59f
10:50am 3.5ft 9s 7s 2
mph
1020.9mb 57f 58f
9:50am 4ft 8s 7s 2
mph
1020.9mb 56f 57f